Time;durP1;ratioP1;P1;durP2;ratioP2;P2;SDS_P1;SDS_P2;PMS_P1;PMS_P2;Temp;Humidity;BMP_temperature;BMP_pressure;BME280_temperature;BME280_humidity;BME280_pressure;Samples;Min_cycle;Max_cycle;Signal;HPM_P1;HPM_P2
2021/07/16 00:00:21;;;;;;;82.80;10.70;;;;;;;;;;5044565;28;20029;-34
2021/07/16 00:02:49;;;;;;;67.03;9.68;;;;;;;;;;5043680;28;20022;-39
2021/07/16 00:05:16;;;;;;;67.00;9.88;;;;;;;;;;5051489;28;20396;-37
2021/07/16 00:07:43;;;;;;;73.25;10.85;;;;;;;;;;5045506;28;20017;-42
2021/07/16 00:10:13;;;;;;;76.35;9.95;;;;;;;;;;5048619;28;20036;-42
2021/07/16 00:12:40;;;;;;;80.85;10.60;;;;;;;;;;5041503;28;20039;-43
2021/07/16 00:15:07;;;;;;;65.93;9.10;;;;;;;;;;5050312;28;20017;-37
2021/07/16 00:17:34;;;;;;;50.92;9.13;;;;;;;;;;5045804;28;20075;-43
2021/07/16 00:20:01;;;;;;;58.78;9.45;;;;;;;;;;5049340;28;20408;-43
2021/07/16 00:22:29;;;;;;;58.92;9.82;;;;;;;;;;5044563;28;20028;-35
2021/07/16 00:24:56;;;;;;;49.10;7.97;;;;;;;;;;5043606;28;20020;-45
2021/07/16 00:27:23;;;;;;;61.85;8.40;;;;;;;;;;5034192;28;20041;-34
2021/07/16 00:29:50;;;;;;;53.42;9.40;;;;;;;;;;5041387;28;20503;-33
2021/07/16 00:32:17;;;;;;;51.50;8.38;;;;;;;;;;5037390;28;20427;-38
2021/07/16 00:34:44;;;;;;;56.47;9.13;;;;;;;;;;5038161;28;20027;-46
2021/07/16 00:37:11;;;;;;;45.00;8.05;;;;;;;;;;5039244;28;20035;-44
2021/07/16 00:39:39;;;;;;;49.38;8.95;;;;;;;;;;5040376;28;20018;-48
2021/07/16 00:42:06;;;;;;;50.88;8.82;;;;;;;;;;5037360;28;20049;-38
2021/07/16 00:44:34;;;;;;;55.35;7.80;;;;;;;;;;5036952;28;20072;-46
2021/07/16 00:47:01;;;;;;;51.63;8.93;;;;;;;;;;5046352;28;20050;-45
2021/07/16 00:49:28;;;;;;;40.78;7.55;;;;;;;;;;5036666;28;20029;-38
2021/07/16 00:51:56;;;;;;;49.17;7.78;;;;;;;;;;5046688;28;20025;-38
2021/07/16 00:54:23;;;;;;;58.63;8.75;;;;;;;;;;5042166;28;21485;-33
2021/07/16 00:56:51;;;;;;;49.08;8.00;;;;;;;;;;5038952;28;20005;-33
2021/07/16 00:59:18;;;;;;;44.28;6.60;;;;;;;;;;5045963;28;20036;-32
2021/07/16 01:01:47;;;;;;;41.33;8.10;;;;;;;;;;5032466;28;20021;-47
2021/07/16 01:04:15;;;;;;;46.92;8.40;;;;;;;;;;5043541;28;20090;-33
2021/07/16 01:06:42;;;;;;;39.83;7.63;;;;;;;;;;5044359;28;20100;-34
2021/07/16 01:09:09;;;;;;;35.83;7.32;;;;;;;;;;5038319;28;20393;-40
2021/07/16 01:11:36;;;;;;;41.15;7.38;;;;;;;;;;5042219;28;20500;-45
2021/07/16 01:14:04;;;;;;;41.33;6.53;;;;;;;;;;5041848;28;20025;-46
2021/07/16 01:16:31;;;;;;;41.17;6.95;;;;;;;;;;5051722;28;20025;-46
2021/07/16 01:18:59;;;;;;;47.67;7.07;;;;;;;;;;5036119;28;20081;-44
2021/07/16 01:21:29;;;;;;;51.00;6.63;;;;;;;;;;5047214;28;20029;-37
2021/07/16 01:23:56;;;;;;;40.75;7.57;;;;;;;;;;5050591;28;20033;-42
2021/07/16 01:26:23;;;;;;;41.53;6.90;;;;;;;;;;5035815;28;20018;-37
2021/07/16 01:28:51;;;;;;;31.25;6.90;;;;;;;;;;5037417;28;20033;-42
2021/07/16 01:31:19;;;;;;;36.50;6.45;;;;;;;;;;5034898;28;20496;-40
2021/07/16 01:33:46;;;;;;;32.35;5.97;;;;;;;;;;5040039;28;20032;-48
2021/07/16 01:36:13;;;;;;;38.60;7.07;;;;;;;;;;5049092;28;20025;-43
2021/07/16 01:38:40;;;;;;;38.92;6.45;;;;;;;;;;5047586;28;20424;-33
2021/07/16 01:41:07;;;;;;;38.35;6.00;;;;;;;;;;5046802;28;20477;-36
2021/07/16 01:43:34;;;;;;;35.38;5.40;;;;;;;;;;5048679;28;20033;-45
2021/07/16 01:46:01;;;;;;;39.20;6.10;;;;;;;;;;5050090;28;20056;-47
2021/07/16 01:48:30;;;;;;;45.55;7.13;;;;;;;;;;5049701;28;20024;-59
2021/07/16 01:50:57;;;;;;;40.22;6.28;;;;;;;;;;5051280;28;20032;-35
2021/07/16 01:53:24;;;;;;;28.58;6.30;;;;;;;;;;5046942;28;20066;-41
2021/07/16 01:55:51;;;;;;;36.80;5.45;;;;;;;;;;5052212;28;20021;-48
2021/07/16 01:58:18;;;;;;;37.72;6.80;;;;;;;;;;5047463;28;20064;-45
2021/07/16 02:00:47;;;;;;;34.13;6.28;;;;;;;;;;5047136;28;20026;-40
2021/07/16 02:03:16;;;;;;;37.40;5.97;;;;;;;;;;5044315;28;20118;-38
2021/07/16 02:05:43;;;;;;;27.90;5.47;;;;;;;;;;5050337;28;20104;-46
2021/07/16 02:08:18;;;;;;;26.40;5.68;;;;;;;;;;5043815;28;20079;-40
2021/07/16 02:10:47;;;;;;;29.45;5.68;;;;;;;;;;5045599;28;20021;-56
2021/07/16 02:13:15;;;;;;;24.15;5.85;;;;;;;;;;5050170;28;20508;-58
2021/07/16 02:15:43;;;;;;;24.33;6.15;;;;;;;;;;5053428;28;20530;-46
2021/07/16 02:18:10;;;;;;;29.48;6.05;;;;;;;;;;5049013;28;20050;-44
2021/07/16 02:20:38;;;;;;;30.58;5.82;;;;;;;;;;5051233;28;20021;-52
2021/07/16 02:23:09;;;;;;;34.17;5.75;;;;;;;;;;5042037;28;20026;-54
2021/07/16 02:25:36;;;;;;;20.67;6.20;;;;;;;;;;5044111;28;20099;-33
2021/07/16 02:28:08;;;;;;;20.30;5.80;;;;;;;;;;5046668;28;20017;-55
2021/07/16 02:30:35;;;;;;;20.67;5.73;;;;;;;;;;5045947;28;20021;-36
2021/07/16 02:33:02;;;;;;;38.55;6.00;;;;;;;;;;5037380;28;20037;-35
2021/07/16 02:35:30;;;;;;;29.55;5.75;;;;;;;;;;5047570;28;20036;-45
2021/07/16 02:37:58;;;;;;;32.65;5.60;;;;;;;;;;5046035;28;20649;-50
2021/07/16 02:40:25;;;;;;;26.30;5.45;;;;;;;;;;5045805;28;20476;-40
2021/07/16 02:42:52;;;;;;;27.13;6.25;;;;;;;;;;5039172;28;20063;-33
2021/07/16 02:45:21;;;;;;;25.63;5.57;;;;;;;;;;5038788;28;20013;-32
2021/07/16 02:47:49;;;;;;;23.60;5.15;;;;;;;;;;5040488;28;20056;-37
2021/07/16 02:50:36;;;;;;;23.92;4.90;;;;;;;;;;5041588;28;20028;-39
2021/07/16 02:53:04;;;;;;;23.92;5.35;;;;;;;;;;5043885;28;20045;-36
2021/07/16 02:55:31;;;;;;;42.13;5.70;;;;;;;;;;5040326;28;20036;-46
2021/07/16 02:57:58;;;;;;;21.77;4.85;;;;;;;;;;5042085;28;20041;-34
2021/07/16 03:00:27;;;;;;;20.77;4.88;;;;;;;;;;5036090;28;20029;-34
2021/07/16 03:02:54;;;;;;;21.55;4.68;;;;;;;;;;5035551;28;20539;-34
2021/07/16 03:05:22;;;;;;;22.38;4.85;;;;;;;;;;5039638;28;20028;-33
2021/07/16 03:07:50;;;;;;;23.52;4.70;;;;;;;;;;5039690;28;20128;-34
2021/07/16 03:10:31;;;;;;;24.80;4.97;;;;;;;;;;5035769;28;20079;-34
2021/07/16 03:12:58;;;;;;;28.40;5.20;;;;;;;;;;5039515;28;20032;-42
2021/07/16 03:15:26;;;;;;;25.38;5.32;;;;;;;;;;5034837;28;20072;-38
2021/07/16 03:17:54;;;;;;;18.08;3.97;;;;;;;;;;5036890;28;20037;-40
2021/07/16 03:20:23;;;;;;;18.65;4.07;;;;;;;;;;5035136;28;20068;-42
2021/07/16 03:22:51;;;;;;;21.35;4.40;;;;;;;;;;5038342;28;20037;-35
2021/07/16 03:25:19;;;;;;;26.77;4.72;;;;;;;;;;5042004;28;20009;-46
2021/07/16 03:27:46;;;;;;;44.85;4.40;;;;;;;;;;5038189;28;20021;-40
2021/07/16 03:30:15;;;;;;;19.70;4.22;;;;;;;;;;5038543;28;20036;-35
2021/07/16 03:32:42;;;;;;;17.33;3.83;;;;;;;;;;5042202;28;20040;-49
2021/07/16 03:35:10;;;;;;;25.33;4.55;;;;;;;;;;5039310;28;20049;-33
2021/07/16 03:37:37;;;;;;;17.90;3.90;;;;;;;;;;5044310;28;20112;-33
2021/07/16 03:40:05;;;;;;;15.00;3.75;;;;;;;;;;5037183;28;20052;-46
2021/07/16 03:42:32;;;;;;;22.10;3.58;;;;;;;;;;5039239;28;20041;-45
2021/07/16 03:44:59;;;;;;;15.88;3.78;;;;;;;;;;5046027;28;20082;-37
2021/07/16 03:47:27;;;;;;;13.13;3.35;;;;;;;;;;5045980;28;20120;-34
2021/07/16 03:49:54;;;;;;;18.30;3.40;;;;;;;;;;5045342;28;20388;-34
2021/07/16 03:52:21;;;;;;;16.75;3.53;;;;;;;;;;5042380;28;20791;-56
2021/07/16 03:54:48;;;;;;;21.10;3.47;;;;;;;;;;5050531;28;20067;-34
2021/07/16 03:57:15;;;;;;;22.67;3.75;;;;;;;;;;5036739;28;20039;-41
2021/07/16 03:59:43;;;;;;;20.30;3.97;;;;;;;;;;5038401;28;20074;-34
2021/07/16 04:02:10;;;;;;;15.25;3.30;;;;;;;;;;5038063;28;20091;-38
2021/07/16 04:04:37;;;;;;;14.88;3.33;;;;;;;;;;5036729;28;20020;-40
2021/07/16 04:07:06;;;;;;;16.00;3.28;;;;;;;;;;5036041;28;20033;-36
2021/07/16 04:09:34;;;;;;;20.67;3.88;;;;;;;;;;5034315;28;20385;-52
2021/07/16 04:12:19;;;;;;;14.32;3.20;;;;;;;;;;5038704;28;20044;-47
2021/07/16 04:14:48;;;;;;;16.17;3.47;;;;;;;;;;5050789;28;20185;-41
2021/07/16 04:17:16;;;;;;;13.57;3.53;;;;;;;;;;5051979;28;20017;-40
2021/07/16 04:19:44;;;;;;;13.82;3.00;;;;;;;;;;5051286;28;20384;-47
2021/07/16 04:22:11;;;;;;;16.30;2.95;;;;;;;;;;5046727;28;20040;-48
2021/07/16 04:24:39;;;;;;;14.18;3.28;;;;;;;;;;5052477;28;20024;-49
2021/07/16 04:27:07;;;;;;;14.70;3.30;;;;;;;;;;5052312;28;20043;-44
2021/07/16 04:29:34;;;;;;;12.50;3.15;;;;;;;;;;5052160;28;20025;-34
2021/07/16 04:32:02;;;;;;;14.90;3.33;;;;;;;;;;5051810;28;20033;-36
2021/07/16 04:34:29;;;;;;;11.18;2.85;;;;;;;;;;5051483;28;20035;-36
2021/07/16 04:36:57;;;;;;;12.45;2.65;;;;;;;;;;5051710;28;20052;-36
2021/07/16 04:39:24;;;;;;;11.48;2.80;;;;;;;;;;5051619;28;20104;-36
2021/07/16 04:41:51;;;;;;;12.10;2.70;;;;;;;;;;5051499;28;20104;-37
2021/07/16 04:44:18;;;;;;;14.88;3.28;;;;;;;;;;5051525;28;20037;-36
2021/07/16 04:46:45;;;;;;;17.55;3.13;;;;;;;;;;5052283;28;20025;-36
2021/07/16 04:49:12;;;;;;;14.68;2.83;;;;;;;;;;5052480;28;20021;-36
2021/07/16 04:51:39;;;;;;;16.15;3.03;;;;;;;;;;5052111;28;20432;-37
2021/07/16 04:54:07;;;;;;;13.10;2.65;;;;;;;;;;5052311;28;20028;-36
2021/07/16 04:56:34;;;;;;;7.35;2.60;;;;;;;;;;5052395;28;20443;-36
2021/07/16 04:59:02;;;;;;;11.05;2.78;;;;;;;;;;5052132;28;20841;-36
2021/07/16 05:01:29;;;;;;;8.07;2.33;;;;;;;;;;5052083;28;20035;-36
2021/07/16 05:03:56;;;;;;;9.10;2.60;;;;;;;;;;5052253;28;20064;-36
2021/07/16 05:06:24;;;;;;;9.15;2.30;;;;;;;;;;5052047;28;20473;-35
2021/07/16 05:08:52;;;;;;;7.30;2.08;;;;;;;;;;5052338;28;20017;-37
2021/07/16 05:11:20;;;;;;;11.30;2.65;;;;;;;;;;5052348;28;20400;-36
2021/07/16 05:13:47;;;;;;;12.32;2.90;;;;;;;;;;5052140;28;20033;-36
2021/07/16 05:16:15;;;;;;;13.02;2.55;;;;;;;;;;5052083;28;20607;-36
2021/07/16 05:18:42;;;;;;;9.88;2.53;;;;;;;;;;5052466;28;20392;-37
2021/07/16 05:21:10;;;;;;;8.52;2.30;;;;;;;;;;5056286;28;20029;-36
2021/07/16 05:23:37;;;;;;;11.50;2.22;;;;;;;;;;5054786;28;20043;-34
2021/07/16 05:26:05;;;;;;;11.80;2.30;;;;;;;;;;5055147;28;20055;-35
2021/07/16 05:28:32;;;;;;;8.90;2.42;;;;;;;;;;5055259;28;20013;-37
2021/07/16 05:30:59;;;;;;;6.38;2.00;;;;;;;;;;5055055;28;20083;-37
2021/07/16 05:33:26;;;;;;;4.57;1.60;;;;;;;;;;5051520;28;20036;-40
2021/07/16 05:35:53;;;;;;;5.75;1.98;;;;;;;;;;5055909;28;20105;-40
2021/07/16 05:38:25;;;;;;;13.18;2.40;;;;;;;;;;5055167;28;20025;-42
2021/07/16 05:40:52;;;;;;;8.40;2.05;;;;;;;;;;5054042;28;20043;-43
2021/07/16 05:43:19;;;;;;;8.13;2.08;;;;;;;;;;5050947;28;20095;-48
2021/07/16 05:45:46;;;;;;;7.28;2.63;;;;;;;;;;5055581;28;20029;-37
2021/07/16 05:48:13;;;;;;;9.90;2.58;;;;;;;;;;5055352;28;20032;-47
2021/07/16 05:50:41;;;;;;;9.32;2.15;;;;;;;;;;5054925;28;20468;-48
2021/07/16 05:53:08;;;;;;;9.15;1.90;;;;;;;;;;5050729;28;20029;-48
2021/07/16 05:55:36;;;;;;;8.27;2.20;;;;;;;;;;5055390;28;20033;-43
2021/07/16 05:58:04;;;;;;;4.63;1.70;;;;;;;;;;5055388;28;20029;-37
2021/07/16 06:00:31;;;;;;;6.75;1.88;;;;;;;;;;5054371;28;20037;-40
2021/07/16 06:02:59;;;;;;;8.82;2.03;;;;;;;;;;5050330;28;20396;-38
2021/07/16 06:05:26;;;;;;;4.80;1.88;;;;;;;;;;5055378;28;20059;-37
2021/07/16 06:07:53;;;;;;;4.50;1.38;;;;;;;;;;5055169;28;20017;-37
2021/07/16 06:10:20;;;;;;;4.65;1.70;;;;;;;;;;5054296;28;20025;-37
2021/07/16 06:12:47;;;;;;;5.38;1.55;;;;;;;;;;5050208;28;20036;-37
2021/07/16 06:15:14;;;;;;;5.78;1.70;;;;;;;;;;5054915;28;20021;-37
2021/07/16 06:17:41;;;;;;;4.65;1.80;;;;;;;;;;5055066;28;20017;-36
2021/07/16 06:20:09;;;;;;;5.20;1.60;;;;;;;;;;5054447;28;20476;-37
2021/07/16 06:22:37;;;;;;;7.78;1.40;;;;;;;;;;5051935;28;20024;-35
2021/07/16 06:25:05;;;;;;;7.03;1.45;;;;;;;;;;5052768;28;20021;-37
2021/07/16 06:27:32;;;;;;;4.05;1.35;;;;;;;;;;5055015;28;20021;-36
2021/07/16 06:29:59;;;;;;;4.00;1.48;;;;;;;;;;5053702;28;20075;-36
2021/07/16 06:32:26;;;;;;;3.47;1.15;;;;;;;;;;5053055;28;20044;-36
2021/07/16 06:34:53;;;;;;;3.17;1.27;;;;;;;;;;5050113;28;20097;-36
2021/07/16 06:37:20;;;;;;;4.07;1.48;;;;;;;;;;5054802;28;20461;-36
2021/07/16 06:39:47;;;;;;;4.50;1.42;;;;;;;;;;5054300;28;20028;-37
2021/07/16 06:42:14;;;;;;;6.25;1.40;;;;;;;;;;5053678;28;20045;-45
2021/07/16 06:44:41;;;;;;;4.60;1.33;;;;;;;;;;5049566;28;20032;-41
2021/07/16 06:47:10;;;;;;;5.70;1.48;;;;;;;;;;5054497;28;20029;-47
2021/07/16 06:49:37;;;;;;;3.85;1.30;;;;;;;;;;5054342;28;20020;-37
2021/07/16 06:52:04;;;;;;;4.47;1.33;;;;;;;;;;5053689;28;20025;-40
2021/07/16 06:54:31;;;;;;;2.75;1.17;;;;;;;;;;5049413;28;20063;-44
2021/07/16 06:56:58;;;;;;;3.00;0.95;;;;;;;;;;5054293;28;20067;-39
2021/07/16 06:59:25;;;;;;;4.88;1.65;;;;;;;;;;5054284;28;20037;-44
2021/07/16 07:01:52;;;;;;;3.75;1.25;;;;;;;;;;5053376;28;20535;-44
2021/07/16 07:04:19;;;;;;;3.38;1.20;;;;;;;;;;5049153;28;20033;-47
2021/07/16 07:06:46;;;;;;;7.15;1.58;;;;;;;;;;5054277;28;20021;-37
2021/07/16 07:09:13;;;;;;;3.70;1.20;;;;;;;;;;5053790;28;20021;-37
2021/07/16 07:11:40;;;;;;;3.47;1.05;;;;;;;;;;5053268;28;20033;-38
2021/07/16 07:14:07;;;;;;;4.22;1.23;;;;;;;;;;5049171;28;20773;-36
2021/07/16 07:16:35;;;;;;;4.05;1.25;;;;;;;;;;5053992;28;20033;-36
2021/07/16 07:19:02;;;;;;;2.97;0.90;;;;;;;;;;5053898;28;20039;-37
2021/07/16 07:21:30;;;;;;;5.97;1.33;;;;;;;;;;5053435;28;20365;-37
2021/07/16 07:23:57;;;;;;;2.90;1.10;;;;;;;;;;5053490;28;20512;-42
2021/07/16 07:26:24;;;;;;;3.88;1.02;;;;;;;;;;5053072;28;20064;-37
2021/07/16 07:28:51;;;;;;;4.90;0.98;;;;;;;;;;5049455;28;20125;-44
2021/07/16 07:31:18;;;;;;;3.50;0.90;;;;;;;;;;5053554;28;20028;-38
2021/07/16 07:33:45;;;;;;;3.63;1.33;;;;;;;;;;5052952;28;20502;-45
2021/07/16 07:36:12;;;;;;;5.43;1.23;;;;;;;;;;5053326;28;20104;-47
2021/07/16 07:38:41;;;;;;;2.63;1.00;;;;;;;;;;5048721;28;20052;-43
2021/07/16 07:41:08;;;;;;;5.10;1.23;;;;;;;;;;5052704;28;20025;-44
2021/07/16 07:43:35;;;;;;;1.63;0.88;;;;;;;;;;5052386;28;20112;-42
2021/07/16 07:46:02;;;;;;;3.20;1.13;;;;;;;;;;5053382;28;20056;-38
2021/07/16 07:48:29;;;;;;;3.22;1.05;;;;;;;;;;5048391;28;20021;-40
2021/07/16 07:50:57;;;;;;;3.97;1.10;;;;;;;;;;5053357;28;20476;-36
2021/07/16 07:53:25;;;;;;;2.65;1.00;;;;;;;;;;5052739;28;20053;-36
2021/07/16 07:55:52;;;;;;;1.52;0.80;;;;;;;;;;5052680;28;20021;-41
2021/07/16 07:58:19;;;;;;;1.20;0.70;;;;;;;;;;5048352;28;20549;-45
2021/07/16 08:00:46;;;;;;;2.08;0.95;;;;;;;;;;5053400;28;20388;-37
2021/07/16 08:03:13;;;;;;;3.22;1.00;;;;;;;;;;5052611;28;20032;-35
2021/07/16 08:05:40;;;;;;;1.92;0.57;;;;;;;;;;5052654;28;20037;-36
2021/07/16 08:08:07;;;;;;;3.95;0.98;;;;;;;;;;5047814;28;20029;-36
2021/07/16 08:10:34;;;;;;;2.38;0.95;;;;;;;;;;5052652;28;20029;-37
2021/07/16 08:13:01;;;;;;;2.85;1.00;;;;;;;;;;5052617;28;20028;-36
2021/07/16 08:15:28;;;;;;;2.15;0.85;;;;;;;;;;5052410;28;20412;-37
2021/07/16 08:17:55;;;;;;;2.55;0.75;;;;;;;;;;5050109;28;20052;-35
2021/07/16 08:20:22;;;;;;;2.17;0.73;;;;;;;;;;5050368;28;20088;-35
2021/07/16 08:22:49;;;;;;;2.20;0.90;;;;;;;;;;5052871;28;20025;-37
2021/07/16 08:25:16;;;;;;;1.65;0.80;;;;;;;;;;5051629;28;20021;-36
2021/07/16 08:27:44;;;;;;;2.20;0.80;;;;;;;;;;5052241;28;20045;-36
2021/07/16 08:30:12;;;;;;;2.17;0.77;;;;;;;;;;5047981;28;20021;-37
2021/07/16 08:32:39;;;;;;;1.55;0.70;;;;;;;;;;5052301;28;20040;-35
2021/07/16 08:35:06;;;;;;;1.42;0.63;;;;;;;;;;5051939;28;20045;-37
2021/07/16 08:37:34;;;;;;;3.47;0.90;;;;;;;;;;5052250;28;20053;-37
2021/07/16 08:40:01;;;;;;;1.88;0.80;;;;;;;;;;5047502;28;20029;-36
2021/07/16 08:42:28;;;;;;;3.83;0.80;;;;;;;;;;5052165;28;20137;-35
2021/07/16 08:44:55;;;;;;;3.47;0.93;;;;;;;;;;5051873;28;20531;-36
2021/07/16 08:47:23;;;;;;;1.73;0.70;;;;;;;;;;5052107;28;20060;-36
2021/07/16 08:49:50;;;;;;;3.15;1.00;;;;;;;;;;5047382;28;20021;-36
2021/07/16 08:52:18;;;;;;;1.90;0.65;;;;;;;;;;5052289;28;20037;-36
2021/07/16 08:54:48;;;;;;;1.98;0.95;;;;;;;;;;5051267;28;20025;-36
2021/07/16 08:57:16;;;;;;;1.70;0.60;;;;;;;;;;5051680;28;20021;-36
2021/07/16 08:59:43;;;;;;;1.63;0.60;;;;;;;;;;5040581;28;20029;-35
2021/07/16 09:02:11;;;;;;;1.48;0.70;;;;;;;;;;5032323;28;20396;-35
2021/07/16 09:04:39;;;;;;;2.03;0.70;;;;;;;;;;5032085;28;20087;-36
2021/07/16 09:07:06;;;;;;;3.75;0.65;;;;;;;;;;5031526;28;20021;-36
2021/07/16 09:09:38;;;;;;;1.90;0.68;;;;;;;;;;5030562;28;20056;-37
2021/07/16 09:12:11;;;;;;;3.13;0.85;;;;;;;;;;5051985;28;20079;-38
2021/07/16 09:14:39;;;;;;;1.30;0.60;;;;;;;;;;5052053;28;20138;-35
2021/07/16 09:17:14;;;;;;;3.03;0.73;;;;;;;;;;5051624;28;20025;-34
2021/07/16 09:19:43;;;;;;;1.90;0.70;;;;;;;;;;5043974;28;20029;-35
2021/07/16 09:22:34;;;;;;;1.83;0.60;;;;;;;;;;5032360;28;20748;-36
2021/07/16 09:25:05;;;;;;;1.80;0.70;;;;;;;;;;5031689;28;20060;-38
2021/07/16 09:27:37;;;;;;;2.08;0.80;;;;;;;;;;5031389;28;20021;-36
2021/07/16 09:30:13;;;;;;;1.70;0.67;;;;;;;;;;5033457;28;20033;-44
2021/07/16 09:32:41;;;;;;;2.67;0.75;;;;;;;;;;5051744;28;20036;-35
2021/07/16 09:35:08;;;;;;;1.55;0.75;;;;;;;;;;5051766;28;20029;-36
2021/07/16 09:37:48;;;;;;;1.52;0.70;;;;;;;;;;5050855;28;20025;-37
2021/07/16 09:40:20;;;;;;;1.40;0.60;;;;;;;;;;5046553;28;20550;-36
2021/07/16 09:42:46;;;;;;;;;;;;;;;;;;5052204;28;20041;-36
2021/07/16 09:45:16;;;;;;;0.98;0.70;;;;;;;;;;5051246;28;20280;-59
2021/07/16 09:47:43;;;;;;;4.65;0.95;;;;;;;;;;5051033;28;20025;-56
2021/07/16 09:50:12;;;;;;;0.90;0.50;;;;;;;;;;5048433;28;20036;-34
2021/07/16 09:52:39;;;;;;;5.35;1.00;;;;;;;;;;5049911;28;20067;-46
2021/07/16 09:55:21;;;;;;;1.08;0.63;;;;;;;;;;5051467;28;20029;-58
2021/07/16 09:57:49;;;;;;;1.60;0.57;;;;;;;;;;5050611;28;20100;-51
2021/07/16 10:00:18;;;;;;;1.52;0.65;;;;;;;;;;5049399;28;20029;-53
2021/07/16 10:02:46;;;;;;;2.25;0.60;;;;;;;;;;5049160;28;20019;-58
2021/07/16 10:05:13;;;;;;;3.22;0.88;;;;;;;;;;5052399;28;20029;-49
2021/07/16 10:07:44;;;;;;;2.92;0.60;;;;;;;;;;5054491;28;20544;-44
2021/07/16 10:10:12;;;;;;;1.52;0.70;;;;;;;;;;5054735;28;20064;-40
2021/07/16 10:12:41;;;;;;;1.95;0.57;;;;;;;;;;5049989;28;20037;-39
2021/07/16 10:15:12;;;;;;;2.90;0.75;;;;;;;;;;5055223;28;20025;-39
2021/07/16 10:17:40;;;;;;;2.50;0.60;;;;;;;;;;5054055;28;20021;-44
2021/07/16 10:20:09;;;;;;;1.60;0.70;;;;;;;;;;5053541;28;20444;-44
2021/07/16 10:22:36;;;;;;;25.00;2.08;;;;;;;;;;5049078;28;20025;-43
2021/07/16 10:25:03;;;;;;;7.43;1.25;;;;;;;;;;5052372;28;20350;-55
2021/07/16 10:27:30;;;;;;;14.32;1.40;;;;;;;;;;5054053;28;20024;-40
2021/07/16 10:30:08;;;;;;;7.72;1.02;;;;;;;;;;5053559;28;20036;-36
2021/07/16 10:32:43;;;;;;;11.85;1.00;;;;;;;;;;5049871;28;20029;-35
2021/07/16 10:35:14;;;;;;;7.70;1.05;;;;;;;;;;5054695;28;20025;-38
2021/07/16 10:37:41;;;;;;;2.85;0.90;;;;;;;;;;5054408;28;20013;-37
2021/07/16 10:40:08;;;;;;;6.25;0.90;;;;;;;;;;5053461;28;20055;-35
2021/07/16 10:42:39;;;;;;;4.35;0.93;;;;;;;;;;5049027;28;20566;-37
2021/07/16 10:45:08;;;;;;;4.10;0.98;;;;;;;;;;5051655;28;20384;-35
2021/07/16 10:47:35;;;;;;;4.22;0.95;;;;;;;;;;5054160;28;20468;-37
2021/07/16 10:50:02;;;;;;;7.07;0.80;;;;;;;;;;5053561;28;20389;-39
2021/07/16 10:52:47;;;;;;;6.28;1.05;;;;;;;;;;5048882;28;20037;-38
2021/07/16 10:55:15;;;;;;;5.32;1.05;;;;;;;;;;5054562;28;20423;-39
2021/07/16 10:57:43;;;;;;;4.65;0.70;;;;;;;;;;5054247;28;20035;-38
2021/07/16 11:00:13;;;;;;;3.20;0.90;;;;;;;;;;5053534;28;20423;-38
2021/07/16 11:02:44;;;;;;;2.95;0.95;;;;;;;;;;5049040;28;20089;-38
2021/07/16 11:05:29;;;;;;;3.60;0.60;;;;;;;;;;5054297;28;20465;-38
2021/07/16 11:07:56;;;;;;;3.83;0.80;;;;;;;;;;5053967;28;20030;-39
2021/07/16 11:10:41;;;;;;;4.47;1.15;;;;;;;;;;5053190;28;20084;-39
2021/07/16 11:13:26;;;;;;;4.22;0.70;;;;;;;;;;5049221;28;20463;-38
2021/07/16 11:15:53;;;;;;;4.65;0.82;;;;;;;;;;5053840;28;20427;-39
2021/07/16 11:18:29;;;;;;;4.88;0.80;;;;;;;;;;5053422;28;20031;-39
2021/07/16 11:20:57;;;;;;;6.65;1.00;;;;;;;;;;5053058;28;20094;-39
2021/07/16 11:23:50;;;;;;;2.05;0.70;;;;;;;;;;5048973;28;20028;-37
2021/07/16 11:26:17;;;;;;;4.78;0.70;;;;;;;;;;5053446;28;20033;-38
2021/07/16 11:28:44;;;;;;;2.35;0.77;;;;;;;;;;5052361;28;20025;-38
2021/07/16 11:31:11;;;;;;;2.95;0.90;;;;;;;;;;5052887;28;20021;-38
2021/07/16 11:33:38;;;;;;;3.95;0.88;;;;;;;;;;5048663;28;20029;-37
2021/07/16 11:36:05;;;;;;;8.07;0.77;;;;;;;;;;5053560;28;20018;-39
2021/07/16 11:38:32;;;;;;;2.88;1.00;;;;;;;;;;5052860;28;20542;-38
2021/07/16 11:41:08;;;;;;;6.32;0.90;;;;;;;;;;5052844;28;20079;-38
2021/07/16 11:43:35;;;;;;;6.38;1.00;;;;;;;;;;5039848;28;20044;-39
2021/07/16 11:46:02;;;;;;;2.97;0.70;;;;;;;;;;5033368;28;20096;-38
2021/07/16 11:48:29;;;;;;;2.03;0.75;;;;;;;;;;5033354;28;20026;-39
2021/07/16 11:51:07;;;;;;;5.30;0.82;;;;;;;;;;5032823;28;20477;-38
2021/07/16 11:53:34;;;;;;;5.25;0.90;;;;;;;;;;5031778;28;20072;-38
2021/07/16 11:56:12;;;;;;;2.53;0.80;;;;;;;;;;5033043;28;20362;-39
2021/07/16 11:58:48;;;;;;;2.10;0.70;;;;;;;;;;5033006;28;20087;-38
2021/07/16 12:01:17;;;;;;;3.92;0.77;;;;;;;;;;5032518;28;20026;-39
2021/07/16 12:03:44;;;;;;;3.30;0.70;;;;;;;;;;5030486;28;20032;-39
2021/07/16 12:06:11;;;;;;;4.00;0.80;;;;;;;;;;5033034;28;20029;-38
2021/07/16 12:08:38;;;;;;;3.80;0.90;;;;;;;;;;5032916;28;20029;-38
2021/07/16 12:11:09;;;;;;;1.75;0.60;;;;;;;;;;5032336;28;20384;-40
2021/07/16 12:13:37;;;;;;;2.95;0.75;;;;;;;;;;5029305;28;20060;-37
2021/07/16 12:16:08;;;;;;;4.15;1.00;;;;;;;;;;5032726;28;20025;-39
2021/07/16 12:18:38;;;;;;;1.73;0.82;;;;;;;;;;5032638;28;20049;-38
2021/07/16 12:21:06;;;;;;;3.45;0.65;;;;;;;;;;5032423;28;20466;-37
2021/07/16 12:23:34;;;;;;;1.63;0.70;;;;;;;;;;5031379;28;20036;-38
2021/07/16 12:26:14;;;;;;;3.55;0.90;;;;;;;;;;5049127;28;20048;-38
2021/07/16 12:28:41;;;;;;;1.58;0.80;;;;;;;;;;5052305;28;20017;-38
2021/07/16 12:31:08;;;;;;;2.67;0.85;;;;;;;;;;5052084;28;20017;-38
2021/07/16 12:33:35;;;;;;;2.80;0.90;;;;;;;;;;5051943;28;20458;-38
2021/07/16 12:36:03;;;;;;;2.72;0.80;;;;;;;;;;5047821;28;20108;-38
2021/07/16 12:38:31;;;;;;;3.65;0.73;;;;;;;;;;5051826;28;20427;-38
2021/07/16 12:41:06;;;;;;;3.40;0.77;;;;;;;;;;5051988;28;20502;-39
2021/07/16 12:43:40;;;;;;;2.65;0.75;;;;;;;;;;5051540;28;20083;-39
2021/07/16 12:46:07;;;;;;;2.55;0.60;;;;;;;;;;5047638;28;20415;-38
2021/07/16 12:48:36;;;;;;;3.70;0.90;;;;;;;;;;5051659;28;20071;-36
2021/07/16 12:51:09;;;;;;;5.18;0.80;;;;;;;;;;5050960;28;20044;-35
2021/07/16 12:53:42;;;;;;;2.80;0.77;;;;;;;;;;5050855;28;20032;-36
2021/07/16 12:56:20;;;;;;;3.33;1.02;;;;;;;;;;5047229;28;20033;-37
2021/07/16 12:58:48;;;;;;;3.72;0.95;;;;;;;;;;5051826;28;20013;-37
2021/07/16 13:01:24;;;;;;;3.42;0.80;;;;;;;;;;5051386;28;20377;-36
2021/07/16 13:03:51;;;;;;;2.25;0.75;;;;;;;;;;5049539;28;20017;-35
2021/07/16 13:06:28;;;;;;;4.88;0.70;;;;;;;;;;5047196;28;20366;-37
2021/07/16 13:09:16;;;;;;;4.30;0.80;;;;;;;;;;5051428;28;20376;-37
2021/07/16 13:11:43;;;;;;;1.48;0.70;;;;;;;;;;5048750;28;20017;-43
2021/07/16 13:14:27;;;;;;;4.70;0.50;;;;;;;;;;5051365;28;20025;-47
2021/07/16 13:17:12;;;;;;;3.33;0.80;;;;;;;;;;5042690;28;20032;-45
2021/07/16 13:19:39;;;;;;;5.00;1.00;;;;;;;;;;5044186;28;20036;-46
2021/07/16 13:22:06;;;;;;;4.05;0.90;;;;;;;;;;5046376;28;20021;-40
2021/07/16 13:24:33;;;;;;;2.33;0.90;;;;;;;;;;5036862;28;20037;-43
2021/07/16 13:27:00;;;;;;;3.75;1.00;;;;;;;;;;5045075;28;20029;-47
2021/07/16 13:29:27;;;;;;;4.57;1.05;;;;;;;;;;5037484;28;20420;-43
2021/07/16 13:31:54;;;;;;;3.75;1.20;;;;;;;;;;5045710;28;20037;-43
2021/07/16 13:34:21;;;;;;;4.75;1.10;;;;;;;;;;5040633;28;20025;-43
2021/07/16 13:36:48;;;;;;;1.67;0.70;;;;;;;;;;5041628;28;20022;-46
2021/07/16 13:39:15;;;;;;;2.40;0.95;;;;;;;;;;5049445;28;20033;-45
2021/07/16 13:41:43;;;;;;;4.55;1.02;;;;;;;;;;5051940;28;20427;-37
2021/07/16 13:44:10;;;;;;;2.05;0.77;;;;;;;;;;5051437;28;20025;-35
2021/07/16 13:46:37;;;;;;;5.20;1.00;;;;;;;;;;5048494;28;20064;-42
2021/07/16 13:49:04;;;;;;;3.22;0.90;;;;;;;;;;5054291;28;20480;-37
2021/07/16 13:51:32;;;;;;;3.25;1.10;;;;;;;;;;5052253;28;20029;-38
2021/07/16 13:54:00;;;;;;;6.22;1.02;;;;;;;;;;5052505;28;20028;-37
2021/07/16 13:56:27;;;;;;;2.95;0.80;;;;;;;;;;5048633;28;20071;-42
2021/07/16 13:58:58;;;;;;;7.18;0.80;;;;;;;;;;5050889;28;20477;-35
2021/07/16 14:01:25;;;;;;;6.70;1.15;;;;;;;;;;5053645;28;20479;-37
2021/07/16 14:03:52;;;;;;;4.38;1.02;;;;;;;;;;5052275;28;20021;-35
2021/07/16 14:06:19;;;;;;;3.42;1.15;;;;;;;;;;5043375;28;20032;-38
2021/07/16 14:08:46;;;;;;;2.88;1.00;;;;;;;;;;5046922;28;20029;-35
2021/07/16 14:11:14;;;;;;;2.25;0.80;;;;;;;;;;5039621;28;20022;-36
2021/07/16 14:13:41;;;;;;;5.90;0.90;;;;;;;;;;5039465;28;20039;-41
2021/07/16 14:16:08;;;;;;;1.95;0.80;;;;;;;;;;5037523;28;20022;-36
2021/07/16 14:18:35;;;;;;;3.60;1.15;;;;;;;;;;5040208;28;20108;-40
2021/07/16 14:21:02;;;;;;;4.65;1.02;;;;;;;;;;5043376;28;20087;-37
2021/07/16 14:23:29;;;;;;;7.25;1.38;;;;;;;;;;5040231;28;20079;-43
2021/07/16 14:25:56;;;;;;;6.78;1.20;;;;;;;;;;5049230;28;20025;-45
2021/07/16 14:28:23;;;;;;;7.05;1.17;;;;;;;;;;5045479;28;20026;-40
2021/07/16 14:30:51;;;;;;;3.33;0.77;;;;;;;;;;5044513;28;20436;-42
2021/07/16 14:33:19;;;;;;;10.23;1.20;;;;;;;;;;5044287;28;20029;-37
2021/07/16 14:35:46;;;;;;;3.97;1.00;;;;;;;;;;5044611;28;20028;-37
2021/07/16 14:38:14;;;;;;;6.75;0.90;;;;;;;;;;5048707;28;20029;-38
2021/07/16 14:40:41;;;;;;;5.40;1.00;;;;;;;;;;5049422;28;20017;-37
2021/07/16 14:43:08;;;;;;;5.35;0.95;;;;;;;;;;5045062;28;20056;-40
2021/07/16 14:45:35;;;;;;;3.92;0.98;;;;;;;;;;5053574;28;20346;-38